ベレン の空港の天気 - METARとTAF

ベレン国際空港 ( SBBE / BEL ) - ブラジル パラー州ベレン
飛行場実況気象(Metar)
観測時間12/14 02:00 AMT (12/14 06:00 UTC)
風向・風速南東 2m/s
視程10km以上
天気現象
なし
気温24℃
湿度89%
気圧1011hPa
METARSBBE 140600Z 13003KT CAVOK 24/22 Q1011
過去の天気等 Google飛行場航空写真 Wunderground天気予報

過去48時間のMETAR

飛行場予報(TAF)
発表時間: 12/14 00:00 AMT (12/14 04:00 UTC)
予報対象時間: 14日2時 AMT ~ 15日2時 AMT
風向・風速東北東 2m/s
視程10km以上
なし
14日7時 AMT ~ 14日9時 AMT に徐々に
風向・風速東北東 5m/s
視程10km以上
全天の8割程度の雲 雲底高度 610m
14日11時 AMT ~ 14日12時 AMT に徐々に
風向・風速北 7m/s
視程2500m
天気現象
全天の4割程度の雲 雲底高度 300m
全天の8割程度の雲 雲底高度 610m
14日14時 AMT ~ 14日16時 AMT に徐々に
風向・風速東南東 3m/s
視程10km以上
全天の4割程度の雲 雲底高度 610m
14日18時 AMT ~ 14日20時 AMT に徐々に
風向・風速東 3m/s
全天の4割程度の雲 雲底高度 300m
TAF SBBE 140400Z 1406/1506 06003KT CAVOK TN24/1406Z TX31/1415Z
BECMG 1411/1413 06010KT 9999 BKN020
BECMG 1415/1416 01013KT 2500 RA SCT010 BKN020 FE W025TCU
BECMG 1418/1420 11005KT 9999 SCT020
BECMG 1422/1424 09005KT SCT010 B ECMG 1503/1505 14002KT CAVOK RMK PDY